sensor_id;sensor_type;location;lat;lon;timestamp;temperature;humidity
41447;DHT22;27185;52.040;4.490;2023-07-13T00:02:45;20.50;99.90
41447;DHT22;27185;52.040;4.490;2023-07-13T00:05:31;20.40;99.90
41447;DHT22;27185;52.040;4.490;2023-07-13T00:08:17;20.40;99.90
41447;DHT22;27185;52.040;4.490;2023-07-13T00:11:03;20.50;99.90
41447;DHT22;27185;52.040;4.490;2023-07-13T00:13:49;20.40;99.90
41447;DHT22;27185;52.040;4.490;2023-07-13T00:16:38;20.50;99.90
41447;DHT22;27185;52.040;4.490;2023-07-13T00:19:24;20.50;99.90
41447;DHT22;27185;52.040;4.490;2023-07-13T00:22:09;20.40;99.90
41447;DHT22;27185;52.040;4.490;2023-07-13T00:24:55;20.40;99.90
41447;DHT22;27185;52.040;4.490;2023-07-13T00:27:43;20.40;99.90
41447;DHT22;27185;52.040;4.490;2023-07-13T00:30:29;20.50;99.90
41447;DHT22;27185;52.040;4.490;2023-07-13T00:33:14;20.50;99.90
41447;DHT22;27185;52.040;4.490;2023-07-13T00:36:00;20.50;99.90
41447;DHT22;27185;52.040;4.490;2023-07-13T00:38:45;20.50;99.90
41447;DHT22;27185;52.040;4.490;2023-07-13T00:41:31;20.50;99.90
41447;DHT22;27185;52.040;4.490;2023-07-13T00:44:18;20.50;99.90
41447;DHT22;27185;52.040;4.490;2023-07-13T00:47:04;20.50;99.90
41447;DHT22;27185;52.040;4.490;2023-07-13T00:49:49;20.50;99.90
41447;DHT22;27185;52.040;4.490;2023-07-13T00:52:36;20.50;99.90
41447;DHT22;27185;52.040;4.490;2023-07-13T00:55:22;20.50;99.90
41447;DHT22;27185;52.040;4.490;2023-07-13T00:58:08;20.40;99.90
41447;DHT22;27185;52.040;4.490;2023-07-13T01:00:53;20.40;99.90
41447;DHT22;27185;52.040;4.490;2023-07-13T01:03:39;20.40;99.90
41447;DHT22;27185;52.040;4.490;2023-07-13T01:06:25;20.30;99.90
41447;DHT22;27185;52.040;4.490;2023-07-13T01:09:11;20.20;99.90
41447;DHT22;27185;52.040;4.490;2023-07-13T01:11:57;20.10;99.90
41447;DHT22;27185;52.040;4.490;2023-07-13T01:14:42;20.10;99.90
41447;DHT22;27185;52.040;4.490;2023-07-13T01:17:28;20.00;99.90
41447;DHT22;27185;52.040;4.490;2023-07-13T01:20:14;19.90;99.90
41447;DHT22;27185;52.040;4.490;2023-07-13T01:22:59;19.90;99.90
41447;DHT22;27185;52.040;4.490;2023-07-13T01:25:45;19.80;99.90
41447;DHT22;27185;52.040;4.490;2023-07-13T01:28:30;19.70;99.90
41447;DHT22;27185;52.040;4.490;2023-07-13T01:31:16;19.70;99.90
41447;DHT22;27185;52.040;4.490;2023-07-13T01:34:02;19.60;99.90
41447;DHT22;27185;52.040;4.490;2023-07-13T01:36:47;19.60;99.90
41447;DHT22;27185;52.040;4.490;2023-07-13T01:39:33;19.50;99.90
41447;DHT22;27185;52.040;4.490;2023-07-13T01:42:18;19.50;99.90
41447;DHT22;27185;52.040;4.490;2023-07-13T01:45:04;19.40;99.90
41447;DHT22;27185;52.040;4.490;2023-07-13T01:47:49;19.40;99.90
41447;DHT22;27185;52.040;4.490;2023-07-13T01:50:35;19.40;99.90
41447;DHT22;27185;52.040;4.490;2023-07-13T01:53:21;19.30;99.90
41447;DHT22;27185;52.040;4.490;2023-07-13T01:56:06;19.30;99.90
41447;DHT22;27185;52.040;4.490;2023-07-13T01:58:52;19.20;99.90
41447;DHT22;27185;52.040;4.490;2023-07-13T02:01:37;19.20;99.90
41447;DHT22;27185;52.040;4.490;2023-07-13T02:04:23;19.10;99.90
41447;DHT22;27185;52.040;4.490;2023-07-13T02:07:09;19.10;99.90
41447;DHT22;27185;52.040;4.490;2023-07-13T02:09:54;19.00;99.90
41447;DHT22;27185;52.040;4.490;2023-07-13T02:12:40;18.90;99.90
41447;DHT22;27185;52.040;4.490;2023-07-13T02:15:26;18.90;99.90
41447;DHT22;27185;52.040;4.490;2023-07-13T02:18:11;18.90;99.90
41447;DHT22;27185;52.040;4.490;2023-07-13T02:20:59;18.80;99.90
41447;DHT22;27185;52.040;4.490;2023-07-13T02:23:45;18.80;99.90
41447;DHT22;27185;52.040;4.490;2023-07-13T02:26:30;18.70;99.90
41447;DHT22;27185;52.040;4.490;2023-07-13T02:29:16;18.70;99.90
41447;DHT22;27185;52.040;4.490;2023-07-13T02:32:01;18.60;99.90
41447;DHT22;27185;52.040;4.490;2023-07-13T02:34:47;18.60;99.90
41447;DHT22;27185;52.040;4.490;2023-07-13T02:37:32;18.60;99.90
41447;DHT22;27185;52.040;4.490;2023-07-13T02:40:18;18.60;99.90
41447;DHT22;27185;52.040;4.490;2023-07-13T02:43:03;18.50;99.90
41447;DHT22;27185;52.040;4.490;2023-07-13T02:45:49;18.50;99.90
41447;DHT22;27185;52.040;4.490;2023-07-13T02:48:34;18.50;99.90
41447;DHT22;27185;52.040;4.490;2023-07-13T02:51:20;18.50;99.90
41447;DHT22;27185;52.040;4.490;2023-07-13T02:54:05;18.50;99.90
41447;DHT22;27185;52.040;4.490;2023-07-13T02:56:53;18.40;99.90
41447;DHT22;27185;52.040;4.490;2023-07-13T02:59:39;18.40;99.90
41447;DHT22;27185;52.040;4.490;2023-07-13T03:02:24;18.40;99.90
41447;DHT22;27185;52.040;4.490;2023-07-13T03:05:10;18.40;99.90
41447;DHT22;27185;52.040;4.490;2023-07-13T03:07:58;18.40;99.90
41447;DHT22;27185;52.040;4.490;2023-07-13T03:10:43;18.30;99.90
41447;DHT22;27185;52.040;4.490;2023-07-13T03:13:29;18.40;99.90
41447;DHT22;27185;52.040;4.490;2023-07-13T03:16:14;18.40;99.90
41447;DHT22;27185;52.040;4.490;2023-07-13T03:19:01;18.40;99.90
41447;DHT22;27185;52.040;4.490;2023-07-13T03:21:46;18.40;99.90
41447;DHT22;27185;52.040;4.490;2023-07-13T03:24:32;18.30;99.90
41447;DHT22;27185;52.040;4.490;2023-07-13T03:27:18;18.30;99.90
41447;DHT22;27185;52.040;4.490;2023-07-13T03:30:04;18.30;99.90
41447;DHT22;27185;52.040;4.490;2023-07-13T03:32:50;18.30;99.90
41447;DHT22;27185;52.040;4.490;2023-07-13T03:35:35;18.30;99.90
41447;DHT22;27185;52.040;4.490;2023-07-13T03:38:25;18.30;99.90
41447;DHT22;27185;52.040;4.490;2023-07-13T03:41:11;18.30;99.90
41447;DHT22;27185;52.040;4.490;2023-07-13T03:43:57;18.30;99.90
41447;DHT22;27185;52.040;4.490;2023-07-13T03:46:42;18.30;99.90
41447;DHT22;27185;52.040;4.490;2023-07-13T03:49:27;18.30;99.90
41447;DHT22;27185;52.040;4.490;2023-07-13T03:52:13;18.30;99.90
41447;DHT22;27185;52.040;4.490;2023-07-13T03:54:58;18.30;99.90
41447;DHT22;27185;52.040;4.490;2023-07-13T03:57:44;18.30;99.90
41447;DHT22;27185;52.040;4.490;2023-07-13T04:00:29;18.30;99.90
41447;DHT22;27185;52.040;4.490;2023-07-13T04:03:15;18.40;99.90
41447;DHT22;27185;52.040;4.490;2023-07-13T04:06:02;18.40;99.90
41447;DHT22;27185;52.040;4.490;2023-07-13T04:08:48;18.40;99.90
41447;DHT22;27185;52.040;4.490;2023-07-13T04:11:35;18.50;99.90
41447;DHT22;27185;52.040;4.490;2023-07-13T04:14:21;18.50;99.90
41447;DHT22;27185;52.040;4.490;2023-07-13T04:17:07;18.60;99.90
41447;DHT22;27185;52.040;4.490;2023-07-13T04:19:52;18.60;99.90
41447;DHT22;27185;52.040;4.490;2023-07-13T04:22:38;18.70;99.90
41447;DHT22;27185;52.040;4.490;2023-07-13T04:25:23;18.80;99.90
41447;DHT22;27185;52.040;4.490;2023-07-13T04:28:09;18.90;99.90
41447;DHT22;27185;52.040;4.490;2023-07-13T04:30:54;19.00;99.90
41447;DHT22;27185;52.040;4.490;2023-07-13T04:33:40;19.00;99.90
41447;DHT22;27185;52.040;4.490;2023-07-13T04:36:25;19.20;99.90
41447;DHT22;27185;52.040;4.490;2023-07-13T04:39:14;19.30;99.90
41447;DHT22;27185;52.040;4.490;2023-07-13T04:41:59;19.30;99.90
41447;DHT22;27185;52.040;4.490;2023-07-13T04:44:48;19.40;99.90
41447;DHT22;27185;52.040;4.490;2023-07-13T04:47:34;19.50;99.90
41447;DHT22;27185;52.040;4.490;2023-07-13T04:50:20;19.50;99.90
41447;DHT22;27185;52.040;4.490;2023-07-13T04:53:08;19.60;99.90
41447;DHT22;27185;52.040;4.490;2023-07-13T04:55:53;19.70;99.90
41447;DHT22;27185;52.040;4.490;2023-07-13T04:58:39;19.80;99.90
41447;DHT22;27185;52.040;4.490;2023-07-13T05:01:25;19.90;99.90
41447;DHT22;27185;52.040;4.490;2023-07-13T05:04:11;20.00;99.90
41447;DHT22;27185;52.040;4.490;2023-07-13T05:06:57;20.10;99.90
41447;DHT22;27185;52.040;4.490;2023-07-13T05:09:42;20.20;99.90
41447;DHT22;27185;52.040;4.490;2023-07-13T05:12:28;20.30;99.90
41447;DHT22;27185;52.040;4.490;2023-07-13T05:15:13;20.40;99.90
41447;DHT22;27185;52.040;4.490;2023-07-13T05:17:59;20.40;99.90
41447;DHT22;27185;52.040;4.490;2023-07-13T05:20:44;20.50;99.90
41447;DHT22;27185;52.040;4.490;2023-07-13T05:23:31;20.60;99.90
41447;DHT22;27185;52.040;4.490;2023-07-13T05:26:16;20.60;99.90
41447;DHT22;27185;52.040;4.490;2023-07-13T05:29:02;20.70;99.90
41447;DHT22;27185;52.040;4.490;2023-07-13T05:31:48;20.70;99.90
41447;DHT22;27185;52.040;4.490;2023-07-13T05:34:33;20.80;99.90
41447;DHT22;27185;52.040;4.490;2023-07-13T05:37:19;20.90;99.90
41447;DHT22;27185;52.040;4.490;2023-07-13T05:40:04;20.90;99.90
41447;DHT22;27185;52.040;4.490;2023-07-13T05:42:50;20.90;99.90
41447;DHT22;27185;52.040;4.490;2023-07-13T05:45:36;21.00;99.90
41447;DHT22;27185;52.040;4.490;2023-07-13T05:48:21;21.10;99.90
41447;DHT22;27185;52.040;4.490;2023-07-13T05:51:07;21.10;99.90
41447;DHT22;27185;52.040;4.490;2023-07-13T05:53:52;21.20;99.90
41447;DHT22;27185;52.040;4.490;2023-07-13T05:56:38;21.20;99.90
41447;DHT22;27185;52.040;4.490;2023-07-13T05:59:23;21.30;99.90
41447;DHT22;27185;52.040;4.490;2023-07-13T06:02:09;21.40;99.90
41447;DHT22;27185;52.040;4.490;2023-07-13T06:04:55;21.40;99.90
41447;DHT22;27185;52.040;4.490;2023-07-13T06:07:41;21.50;99.90
41447;DHT22;27185;52.040;4.490;2023-07-13T06:10:27;21.50;99.90
41447;DHT22;27185;52.040;4.490;2023-07-13T06:13:12;21.50;99.90
41447;DHT22;27185;52.040;4.490;2023-07-13T06:15:58;21.50;99.90
41447;DHT22;27185;52.040;4.490;2023-07-13T06:18:43;21.50;99.90
41447;DHT22;27185;52.040;4.490;2023-07-13T06:21:29;21.50;99.90
41447;DHT22;27185;52.040;4.490;2023-07-13T06:24:14;21.50;99.90
41447;DHT22;27185;52.040;4.490;2023-07-13T06:27:00;21.50;99.90
41447;DHT22;27185;52.040;4.490;2023-07-13T06:29:45;21.50;99.90
41447;DHT22;27185;52.040;4.490;2023-07-13T06:32:31;21.50;99.90
41447;DHT22;27185;52.040;4.490;2023-07-13T06:35:16;21.50;99.90
41447;DHT22;27185;52.040;4.490;2023-07-13T06:38:02;21.50;99.90
41447;DHT22;27185;52.040;4.490;2023-07-13T06:40:47;21.60;99.90
41447;DHT22;27185;52.040;4.490;2023-07-13T06:43:33;21.60;99.90
41447;DHT22;27185;52.040;4.490;2023-07-13T06:46:20;21.60;99.90
41447;DHT22;27185;52.040;4.490;2023-07-13T06:49:07;21.60;99.90
41447;DHT22;27185;52.040;4.490;2023-07-13T06:51:53;21.60;99.90
41447;DHT22;27185;52.040;4.490;2023-07-13T06:54:39;21.70;99.90
41447;DHT22;27185;52.040;4.490;2023-07-13T06:57:24;21.80;99.90
41447;DHT22;27185;52.040;4.490;2023-07-13T07:00:10;21.90;99.40
41447;DHT22;27185;52.040;4.490;2023-07-13T07:02:56;22.10;99.70
41447;DHT22;27185;52.040;4.490;2023-07-13T07:05:41;22.20;99.80
41447;DHT22;27185;52.040;4.490;2023-07-13T07:08:27;22.20;99.70
41447;DHT22;27185;52.040;4.490;2023-07-13T07:11:13;22.20;99.70
41447;DHT22;27185;52.040;4.490;2023-07-13T07:13:59;22.20;99.40
41447;DHT22;27185;52.040;4.490;2023-07-13T07:16:44;22.20;99.30
41447;DHT22;27185;52.040;4.490;2023-07-13T07:19:30;22.20;99.40
41447;DHT22;27185;52.040;4.490;2023-07-13T07:22:15;22.10;99.00
41447;DHT22;27185;52.040;4.490;2023-07-13T07:25:01;22.20;99.30
41447;DHT22;27185;52.040;4.490;2023-07-13T07:27:47;22.20;99.50
41447;DHT22;27185;52.040;4.490;2023-07-13T07:30:32;22.30;99.00
41447;DHT22;27185;52.040;4.490;2023-07-13T07:33:17;22.40;98.90
41447;DHT22;27185;52.040;4.490;2023-07-13T07:36:03;22.40;98.70
41447;DHT22;27185;52.040;4.490;2023-07-13T07:38:49;22.40;98.80
41447;DHT22;27185;52.040;4.490;2023-07-13T07:41:34;22.40;98.70
41447;DHT22;27185;52.040;4.490;2023-07-13T07:44:20;22.40;98.90
41447;DHT22;27185;52.040;4.490;2023-07-13T07:47:05;22.40;98.90
41447;DHT22;27185;52.040;4.490;2023-07-13T07:49:51;22.50;97.80
41447;DHT22;27185;52.040;4.490;2023-07-13T07:52:36;22.60;98.50
41447;DHT22;27185;52.040;4.490;2023-07-13T07:55:23;22.70;97.70
41447;DHT22;27185;52.040;4.490;2023-07-13T07:58:08;22.70;97.90
41447;DHT22;27185;52.040;4.490;2023-07-13T08:00:54;22.60;97.60
41447;DHT22;27185;52.040;4.490;2023-07-13T08:03:46;22.60;97.80
41447;DHT22;27185;52.040;4.490;2023-07-13T08:06:32;22.70;98.30
41447;DHT22;27185;52.040;4.490;2023-07-13T08:09:18;22.80;96.90
41447;DHT22;27185;52.040;4.490;2023-07-13T08:12:07;22.80;97.10
41447;DHT22;27185;52.040;4.490;2023-07-13T08:14:53;22.80;97.30
41447;DHT22;27185;52.040;4.490;2023-07-13T08:17:47;22.90;97.30
41447;DHT22;27185;52.040;4.490;2023-07-13T08:20:33;23.00;96.80
41447;DHT22;27185;52.040;4.490;2023-07-13T08:23:18;23.00;96.50
41447;DHT22;27185;52.040;4.490;2023-07-13T08:26:04;23.00;96.50
41447;DHT22;27185;52.040;4.490;2023-07-13T08:28:50;22.90;96.60
41447;DHT22;27185;52.040;4.490;2023-07-13T08:31:35;22.80;96.80
41447;DHT22;27185;52.040;4.490;2023-07-13T08:34:21;22.80;97.30
41447;DHT22;27185;52.040;4.490;2023-07-13T08:37:06;22.70;97.00
41447;DHT22;27185;52.040;4.490;2023-07-13T08:39:52;22.60;97.00
41447;DHT22;27185;52.040;4.490;2023-07-13T08:45:24;22.70;96.80
41447;DHT22;27185;52.040;4.490;2023-07-13T08:48:13;22.80;97.10
41447;DHT22;27185;52.040;4.490;2023-07-13T08:51:44;22.80;96.40
41447;DHT22;27185;52.040;4.490;2023-07-13T08:54:20;22.90;96.40
41447;DHT22;27185;52.040;4.490;2023-07-13T08:57:12;23.10;96.60
41447;DHT22;27185;52.040;4.490;2023-07-13T08:59:58;23.20;96.20
41447;DHT22;27185;52.040;4.490;2023-07-13T09:02:56;23.40;96.40
41447;DHT22;27185;52.040;4.490;2023-07-13T09:05:42;23.50;95.30
41447;DHT22;27185;52.040;4.490;2023-07-13T09:11:29;23.60;95.60
41447;DHT22;27185;52.040;4.490;2023-07-13T09:14:31;23.70;95.30
41447;DHT22;27185;52.040;4.490;2023-07-13T09:17:33;23.60;95.70
41447;DHT22;27185;52.040;4.490;2023-07-13T09:23:19;23.50;95.70
41447;DHT22;27185;52.040;4.490;2023-07-13T09:26:06;23.40;95.70
41447;DHT22;27185;52.040;4.490;2023-07-13T09:29:01;23.40;96.00
41447;DHT22;27185;52.040;4.490;2023-07-13T09:31:53;23.40;95.70
41447;DHT22;27185;52.040;4.490;2023-07-13T09:34:39;23.60;95.00
41447;DHT22;27185;52.040;4.490;2023-07-13T09:38:43;23.80;93.90
41447;DHT22;27185;52.040;4.490;2023-07-13T09:42:21;23.90;95.20
41447;DHT22;27185;52.040;4.490;2023-07-13T09:47:39;23.90;94.50
41447;DHT22;27185;52.040;4.490;2023-07-13T09:50:24;23.90;94.50
41447;DHT22;27185;52.040;4.490;2023-07-13T09:53:15;23.80;94.40
41447;DHT22;27185;52.040;4.490;2023-07-13T09:56:01;23.70;94.20
41447;DHT22;27185;52.040;4.490;2023-07-13T09:58:47;23.50;94.20
41447;DHT22;27185;52.040;4.490;2023-07-13T10:01:38;23.40;94.40
41447;DHT22;27185;52.040;4.490;2023-07-13T10:04:34;23.30;94.70
41447;DHT22;27185;52.040;4.490;2023-07-13T10:07:22;23.20;95.20
41447;DHT22;27185;52.040;4.490;2023-07-13T10:10:15;23.10;95.40
41447;DHT22;27185;52.040;4.490;2023-07-13T10:13:01;23.10;95.50
41447;DHT22;27185;52.040;4.490;2023-07-13T10:15:49;23.10;95.50
41447;DHT22;27185;52.040;4.490;2023-07-13T10:18:40;23.10;95.10
41447;DHT22;27185;52.040;4.490;2023-07-13T10:21:32;23.10;94.60
41447;DHT22;27185;52.040;4.490;2023-07-13T10:24:23;23.20;95.00
41447;DHT22;27185;52.040;4.490;2023-07-13T10:27:16;23.50;94.50
41447;DHT22;27185;52.040;4.490;2023-07-13T10:30:14;23.80;94.60
41447;DHT22;27185;52.040;4.490;2023-07-13T10:33:02;24.20;93.90
41447;DHT22;27185;52.040;4.490;2023-07-13T10:35:51;24.60;93.40
41447;DHT22;27185;52.040;4.490;2023-07-13T10:38:39;25.00;92.90
41447;DHT22;27185;52.040;4.490;2023-07-13T10:41:28;25.30;92.70
41447;DHT22;27185;52.040;4.490;2023-07-13T10:44:22;25.50;92.50
41447;DHT22;27185;52.040;4.490;2023-07-13T10:47:15;25.60;92.00
41447;DHT22;27185;52.040;4.490;2023-07-13T10:50:01;25.70;91.80
41447;DHT22;27185;52.040;4.490;2023-07-13T10:52:50;25.90;91.90
41447;DHT22;27185;52.040;4.490;2023-07-13T10:56:00;25.90;91.60
41447;DHT22;27185;52.040;4.490;2023-07-13T10:58:46;25.70;91.30
41447;DHT22;27185;52.040;4.490;2023-07-13T11:01:56;25.50;91.30
41447;DHT22;27185;52.040;4.490;2023-07-13T11:04:47;25.30;91.00
41447;DHT22;27185;52.040;4.490;2023-07-13T11:07:52;25.00;91.10
41447;DHT22;27185;52.040;4.490;2023-07-13T11:10:54;24.80;90.80
41447;DHT22;27185;52.040;4.490;2023-07-13T11:16:45;24.70;91.20
41447;DHT22;27185;52.040;4.490;2023-07-13T11:19:39;24.80;91.40
41447;DHT22;27185;52.040;4.490;2023-07-13T11:22:44;24.90;90.20
41447;DHT22;27185;52.040;4.490;2023-07-13T11:25:32;24.70;90.30
41447;DHT22;27185;52.040;4.490;2023-07-13T11:28:24;24.70;90.80
41447;DHT22;27185;52.040;4.490;2023-07-13T11:31:15;24.60;90.90
41447;DHT22;27185;52.040;4.490;2023-07-13T11:34:01;24.70;90.60
41447;DHT22;27185;52.040;4.490;2023-07-13T11:36:47;24.80;91.20
41447;DHT22;27185;52.040;4.490;2023-07-13T11:39:36;25.10;90.90
41447;DHT22;27185;52.040;4.490;2023-07-13T11:42:22;25.30;89.00
41447;DHT22;27185;52.040;4.490;2023-07-13T11:45:21;25.50;87.50
41447;DHT22;27185;52.040;4.490;2023-07-13T11:48:26;25.70;85.70
41447;DHT22;27185;52.040;4.490;2023-07-13T11:54:32;25.80;85.70
41447;DHT22;27185;52.040;4.490;2023-07-13T11:57:28;25.80;85.20
41447;DHT22;27185;52.040;4.490;2023-07-13T12:00:22;25.80;86.40
41447;DHT22;27185;52.040;4.490;2023-07-13T12:03:11;25.80;85.00
41447;DHT22;27185;52.040;4.490;2023-07-13T12:06:03;25.80;86.30
41447;DHT22;27185;52.040;4.490;2023-07-13T12:08:51;25.90;85.90
41447;DHT22;27185;52.040;4.490;2023-07-13T12:11:39;26.00;85.70
41447;DHT22;27185;52.040;4.490;2023-07-13T12:14:25;26.00;85.80
41447;DHT22;27185;52.040;4.490;2023-07-13T12:17:19;26.00;86.70
41447;DHT22;27185;52.040;4.490;2023-07-13T12:20:21;26.20;83.20
41447;DHT22;27185;52.040;4.490;2023-07-13T12:23:25;26.40;84.40
41447;DHT22;27185;52.040;4.490;2023-07-13T12:26:17;26.50;83.70
41447;DHT22;27185;52.040;4.490;2023-07-13T12:29:05;26.50;84.20
41447;DHT22;27185;52.040;4.490;2023-07-13T12:31:51;26.50;84.10
41447;DHT22;27185;52.040;4.490;2023-07-13T12:34:51;26.60;84.30
41447;DHT22;27185;52.040;4.490;2023-07-13T12:37:37;26.60;82.40
41447;DHT22;27185;52.040;4.490;2023-07-13T12:40:27;26.60;84.00
41447;DHT22;27185;52.040;4.490;2023-07-13T12:43:14;26.60;83.40
41447;DHT22;27185;52.040;4.490;2023-07-13T12:46:17;26.60;84.30
41447;DHT22;27185;52.040;4.490;2023-07-13T12:49:06;26.50;84.10
41447;DHT22;27185;52.040;4.490;2023-07-13T12:51:57;26.40;84.10
41447;DHT22;27185;52.040;4.490;2023-07-13T12:55:06;26.30;84.90
41447;DHT22;27185;52.040;4.490;2023-07-13T12:57:56;26.20;85.20
41447;DHT22;27185;52.040;4.490;2023-07-13T13:00:49;26.20;86.70
41447;DHT22;27185;52.040;4.490;2023-07-13T13:03:49;26.30;86.20
41447;DHT22;27185;52.040;4.490;2023-07-13T13:06:37;26.20;86.00
41447;DHT22;27185;52.040;4.490;2023-07-13T13:09:22;26.20;86.80
41447;DHT22;27185;52.040;4.490;2023-07-13T13:12:09;26.10;86.40
41447;DHT22;27185;52.040;4.490;2023-07-13T13:14:55;26.20;87.00
41447;DHT22;27185;52.040;4.490;2023-07-13T13:17:41;26.30;86.10
41447;DHT22;27185;52.040;4.490;2023-07-13T13:20:27;26.40;85.50
41447;DHT22;27185;52.040;4.490;2023-07-13T13:23:14;26.60;85.20
41447;DHT22;27185;52.040;4.490;2023-07-13T13:26:01;26.90;85.30
41447;DHT22;27185;52.040;4.490;2023-07-13T13:28:48;27.20;84.30
41447;DHT22;27185;52.040;4.490;2023-07-13T13:31:34;27.30;82.70
41447;DHT22;27185;52.040;4.490;2023-07-13T13:34:21;27.50;82.80
41447;DHT22;27185;52.040;4.490;2023-07-13T13:37:27;27.70;82.80
41447;DHT22;27185;52.040;4.490;2023-07-13T13:40:21;27.70;81.00
41447;DHT22;27185;52.040;4.490;2023-07-13T13:43:17;27.50;81.50
41447;DHT22;27185;52.040;4.490;2023-07-13T13:46:16;27.40;82.70
41447;DHT22;27185;52.040;4.490;2023-07-13T13:49:02;27.30;81.30
41447;DHT22;27185;52.040;4.490;2023-07-13T13:51:50;27.20;82.20
41447;DHT22;27185;52.040;4.490;2023-07-13T13:54:36;27.10;81.90
41447;DHT22;27185;52.040;4.490;2023-07-13T13:57:24;27.10;82.00
41447;DHT22;27185;52.040;4.490;2023-07-13T14:00:12;27.00;82.30
41447;DHT22;27185;52.040;4.490;2023-07-13T14:02:59;26.90;81.80
41447;DHT22;27185;52.040;4.490;2023-07-13T14:05:45;26.90;82.20
41447;DHT22;27185;52.040;4.490;2023-07-13T14:08:31;26.80;82.40
41447;DHT22;27185;52.040;4.490;2023-07-13T14:11:20;26.90;82.20
41447;DHT22;27185;52.040;4.490;2023-07-13T14:14:05;26.90;80.40
41447;DHT22;27185;52.040;4.490;2023-07-13T14:16:54;27.00;80.40
41447;DHT22;27185;52.040;4.490;2023-07-13T14:19:41;27.00;80.80
41447;DHT22;27185;52.040;4.490;2023-07-13T14:22:27;27.00;81.30
41447;DHT22;27185;52.040;4.490;2023-07-13T14:25:14;27.10;81.30
41447;DHT22;27185;52.040;4.490;2023-07-13T14:28:04;27.20;81.70
41447;DHT22;27185;52.040;4.490;2023-07-13T14:30:55;27.40;81.90
41447;DHT22;27185;52.040;4.490;2023-07-13T14:33:42;27.60;81.90
41447;DHT22;27185;52.040;4.490;2023-07-13T14:36:31;27.70;80.90
41447;DHT22;27185;52.040;4.490;2023-07-13T14:39:19;27.70;80.00
41447;DHT22;27185;52.040;4.490;2023-07-13T14:42:05;27.60;80.20
41447;DHT22;27185;52.040;4.490;2023-07-13T14:44:50;27.40;80.10
41447;DHT22;27185;52.040;4.490;2023-07-13T14:47:37;27.30;80.00
41447;DHT22;27185;52.040;4.490;2023-07-13T14:50:31;27.00;80.50
41447;DHT22;27185;52.040;4.490;2023-07-13T14:53:17;26.90;81.30
41447;DHT22;27185;52.040;4.490;2023-07-13T14:56:12;26.80;83.00
41447;DHT22;27185;52.040;4.490;2023-07-13T14:58:57;26.80;81.60
41447;DHT22;27185;52.040;4.490;2023-07-13T15:01:43;26.80;81.90
41447;DHT22;27185;52.040;4.490;2023-07-13T15:04:29;26.70;81.60
41447;DHT22;27185;52.040;4.490;2023-07-13T15:07:15;26.50;81.80
41447;DHT22;27185;52.040;4.490;2023-07-13T15:10:22;26.50;82.30
41447;DHT22;27185;52.040;4.490;2023-07-13T15:13:21;26.40;82.40
41447;DHT22;27185;52.040;4.490;2023-07-13T15:16:24;26.30;82.20
41447;DHT22;27185;52.040;4.490;2023-07-13T15:19:10;26.30;81.40
41447;DHT22;27185;52.040;4.490;2023-07-13T15:21:57;26.20;81.90
41447;DHT22;27185;52.040;4.490;2023-07-13T15:24:43;26.20;82.60
41447;DHT22;27185;52.040;4.490;2023-07-13T15:27:28;26.20;83.20
41447;DHT22;27185;52.040;4.490;2023-07-13T15:30:14;26.40;83.10
41447;DHT22;27185;52.040;4.490;2023-07-13T15:36:25;26.70;81.60
41447;DHT22;27185;52.040;4.490;2023-07-13T15:39:15;26.90;81.80
41447;DHT22;27185;52.040;4.490;2023-07-13T15:42:01;27.00;81.40
41447;DHT22;27185;52.040;4.490;2023-07-13T15:44:48;27.00;81.20
41447;DHT22;27185;52.040;4.490;2023-07-13T15:47:34;26.90;81.10
41447;DHT22;27185;52.040;4.490;2023-07-13T15:50:24;26.90;80.50
41447;DHT22;27185;52.040;4.490;2023-07-13T15:53:10;26.80;80.70
41447;DHT22;27185;52.040;4.490;2023-07-13T15:55:56;26.70;81.00
41447;DHT22;27185;52.040;4.490;2023-07-13T15:58:42;26.50;81.20
41447;DHT22;27185;52.040;4.490;2023-07-13T16:01:28;26.40;81.90
41447;DHT22;27185;52.040;4.490;2023-07-13T16:04:15;26.40;82.20
41447;DHT22;27185;52.040;4.490;2023-07-13T16:07:01;26.40;82.70
41447;DHT22;27185;52.040;4.490;2023-07-13T16:09:46;26.50;82.80
41447;DHT22;27185;52.040;4.490;2023-07-13T16:12:35;26.60;83.10
41447;DHT22;27185;52.040;4.490;2023-07-13T16:15:22;26.70;82.80
41447;DHT22;27185;52.040;4.490;2023-07-13T16:18:07;26.70;81.90
41447;DHT22;27185;52.040;4.490;2023-07-13T16:20:53;26.60;81.40
41447;DHT22;27185;52.040;4.490;2023-07-13T16:23:43;26.40;81.50
41447;DHT22;27185;52.040;4.490;2023-07-13T16:26:32;26.10;82.00
41447;DHT22;27185;52.040;4.490;2023-07-13T16:29:26;26.00;82.60
41447;DHT22;27185;52.040;4.490;2023-07-13T16:32:13;25.90;83.30
41447;DHT22;27185;52.040;4.490;2023-07-13T16:34:59;26.00;83.60
41447;DHT22;27185;52.040;4.490;2023-07-13T16:37:45;26.10;83.60
41447;DHT22;27185;52.040;4.490;2023-07-13T16:40:33;26.30;83.70
41447;DHT22;27185;52.040;4.490;2023-07-13T16:43:19;26.40;83.10
41447;DHT22;27185;52.040;4.490;2023-07-13T16:46:09;26.50;83.20
41447;DHT22;27185;52.040;4.490;2023-07-13T16:48:56;26.60;82.80
41447;DHT22;27185;52.040;4.490;2023-07-13T16:51:42;26.80;83.30
41447;DHT22;27185;52.040;4.490;2023-07-13T16:54:30;26.80;83.10
41447;DHT22;27185;52.040;4.490;2023-07-13T16:57:23;26.90;82.70
41447;DHT22;27185;52.040;4.490;2023-07-13T17:00:20;27.00;81.80
41447;DHT22;27185;52.040;4.490;2023-07-13T17:03:11;27.00;81.70
41447;DHT22;27185;52.040;4.490;2023-07-13T17:05:57;27.10;82.10
41447;DHT22;27185;52.040;4.490;2023-07-13T17:08:44;27.00;81.30
41447;DHT22;27185;52.040;4.490;2023-07-13T17:11:30;26.90;80.70
41447;DHT22;27185;52.040;4.490;2023-07-13T17:14:18;26.80;81.40
41447;DHT22;27185;52.040;4.490;2023-07-13T17:17:28;26.80;81.20
41447;DHT22;27185;52.040;4.490;2023-07-13T17:20:15;26.80;80.90
41447;DHT22;27185;52.040;4.490;2023-07-13T17:23:01;26.80;82.00
41447;DHT22;27185;52.040;4.490;2023-07-13T17:25:48;26.80;81.50
41447;DHT22;27185;52.040;4.490;2023-07-13T17:28:34;26.80;80.70
41447;DHT22;27185;52.040;4.490;2023-07-13T17:31:20;26.70;80.70
41447;DHT22;27185;52.040;4.490;2023-07-13T17:34:14;26.70;80.60
41447;DHT22;27185;52.040;4.490;2023-07-13T17:37:03;26.60;80.90
41447;DHT22;27185;52.040;4.490;2023-07-13T17:39:49;26.60;81.40
41447;DHT22;27185;52.040;4.490;2023-07-13T17:42:34;26.50;81.70
41447;DHT22;27185;52.040;4.490;2023-07-13T17:45:25;26.50;82.20
41447;DHT22;27185;52.040;4.490;2023-07-13T17:48:11;26.50;82.40
41447;DHT22;27185;52.040;4.490;2023-07-13T17:50:58;26.40;82.30
41447;DHT22;27185;52.040;4.490;2023-07-13T17:53:44;26.40;82.70
41447;DHT22;27185;52.040;4.490;2023-07-13T17:56:30;26.30;83.40
41447;DHT22;27185;52.040;4.490;2023-07-13T17:59:17;26.40;83.30
41447;DHT22;27185;52.040;4.490;2023-07-13T18:02:08;26.40;83.10
41447;DHT22;27185;52.040;4.490;2023-07-13T18:04:55;26.40;82.80